sensor_id;sensor_type;location;lat;lon;timestamp;temperature;humidity
11142;DHT22;5625;50.122;19.864;2023-07-16T00:00:32;24.00;1.00
11142;DHT22;5625;50.122;19.864;2023-07-16T00:03:00;24.00;1.00
11142;DHT22;5625;50.122;19.864;2023-07-16T00:05:30;24.00;1.00
11142;DHT22;5625;50.122;19.864;2023-07-16T00:07:58;24.00;99.90
11142;DHT22;5625;50.122;19.864;2023-07-16T00:10:26;24.00;1.00
11142;DHT22;5625;50.122;19.864;2023-07-16T00:12:54;23.90;1.00
11142;DHT22;5625;50.122;19.864;2023-07-16T00:15:23;23.90;1.00
11142;DHT22;5625;50.122;19.864;2023-07-16T00:17:51;23.80;6.40
11142;DHT22;5625;50.122;19.864;2023-07-16T00:20:22;23.80;99.90
11142;DHT22;5625;50.122;19.864;2023-07-16T00:22:53;23.80;99.90
11142;DHT22;5625;50.122;19.864;2023-07-16T00:25:21;23.80;99.90
11142;DHT22;5625;50.122;19.864;2023-07-16T00:27:49;23.80;99.90
11142;DHT22;5625;50.122;19.864;2023-07-16T00:30:17;23.70;99.90
11142;DHT22;5625;50.122;19.864;2023-07-16T00:32:48;23.70;99.90
11142;DHT22;5625;50.122;19.864;2023-07-16T00:35:18;23.70;99.90
11142;DHT22;5625;50.122;19.864;2023-07-16T00:37:47;23.70;99.90
11142;DHT22;5625;50.122;19.864;2023-07-16T00:40:16;23.70;99.90
11142;DHT22;5625;50.122;19.864;2023-07-16T00:42:44;23.70;99.90
11142;DHT22;5625;50.122;19.864;2023-07-16T00:45:13;23.70;99.90
11142;DHT22;5625;50.122;19.864;2023-07-16T00:47:42;23.60;99.90
11142;DHT22;5625;50.122;19.864;2023-07-16T00:50:11;23.60;99.90
11142;DHT22;5625;50.122;19.864;2023-07-16T00:52:40;23.60;99.90
11142;DHT22;5625;50.122;19.864;2023-07-16T00:55:08;23.60;99.90
11142;DHT22;5625;50.122;19.864;2023-07-16T00:57:38;23.60;99.90
11142;DHT22;5625;50.122;19.864;2023-07-16T01:00:10;23.50;99.90
11142;DHT22;5625;50.122;19.864;2023-07-16T01:02:38;23.50;99.90
11142;DHT22;5625;50.122;19.864;2023-07-16T01:05:07;23.40;99.90
11142;DHT22;5625;50.122;19.864;2023-07-16T01:07:36;23.40;99.90
11142;DHT22;5625;50.122;19.864;2023-07-16T01:10:05;23.40;99.90
11142;DHT22;5625;50.122;19.864;2023-07-16T01:12:35;23.40;99.90
11142;DHT22;5625;50.122;19.864;2023-07-16T01:15:06;23.40;99.90
11142;DHT22;5625;50.122;19.864;2023-07-16T01:17:34;23.30;99.90
11142;DHT22;5625;50.122;19.864;2023-07-16T01:20:03;23.30;99.90
11142;DHT22;5625;50.122;19.864;2023-07-16T01:22:48;23.30;99.90
11142;DHT22;5625;50.122;19.864;2023-07-16T01:25:44;23.30;99.90
11142;DHT22;5625;50.122;19.864;2023-07-16T01:28:32;23.20;1.00
11142;DHT22;5625;50.122;19.864;2023-07-16T01:31:09;23.30;99.90
11142;DHT22;5625;50.122;19.864;2023-07-16T01:33:40;23.20;99.90
11142;DHT22;5625;50.122;19.864;2023-07-16T01:36:09;23.20;99.90
11142;DHT22;5625;50.122;19.864;2023-07-16T01:38:37;23.10;99.90
11142;DHT22;5625;50.122;19.864;2023-07-16T01:41:05;23.10;99.90
11142;DHT22;5625;50.122;19.864;2023-07-16T01:43:33;23.10;1.00
11142;DHT22;5625;50.122;19.864;2023-07-16T01:46:02;23.00;1.00
11142;DHT22;5625;50.122;19.864;2023-07-16T01:48:33;23.00;1.00
11142;DHT22;5625;50.122;19.864;2023-07-16T01:51:01;23.00;1.00
11142;DHT22;5625;50.122;19.864;2023-07-16T01:53:30;22.90;1.00
11142;DHT22;5625;50.122;19.864;2023-07-16T01:56:01;22.90;29.40
11142;DHT22;5625;50.122;19.864;2023-07-16T01:58:29;22.80;70.90
11142;DHT22;5625;50.122;19.864;2023-07-16T02:00:57;22.80;67.30
11142;DHT22;5625;50.122;19.864;2023-07-16T02:03:25;22.80;89.90
11142;DHT22;5625;50.122;19.864;2023-07-16T02:05:55;22.80;96.20
11142;DHT22;5625;50.122;19.864;2023-07-16T02:08:25;22.80;99.90
11142;DHT22;5625;50.122;19.864;2023-07-16T02:10:53;22.80;82.90
11142;DHT22;5625;50.122;19.864;2023-07-16T02:13:21;22.80;77.30
11142;DHT22;5625;50.122;19.864;2023-07-16T02:15:49;22.80;94.00
11142;DHT22;5625;50.122;19.864;2023-07-16T02:18:18;22.80;94.30
11142;DHT22;5625;50.122;19.864;2023-07-16T02:20:46;22.80;24.00
11142;DHT22;5625;50.122;19.864;2023-07-16T02:23:15;22.70;17.50
11142;DHT22;5625;50.122;19.864;2023-07-16T02:25:43;22.70;28.40
11142;DHT22;5625;50.122;19.864;2023-07-16T02:28:11;22.70;1.00
11142;DHT22;5625;50.122;19.864;2023-07-16T02:30:41;22.70;22.10
11142;DHT22;5625;50.122;19.864;2023-07-16T02:33:09;22.70;3.60
11142;DHT22;5625;50.122;19.864;2023-07-16T02:35:37;22.70;1.60
11142;DHT22;5625;50.122;19.864;2023-07-16T02:38:05;22.60;9.90
11142;DHT22;5625;50.122;19.864;2023-07-16T02:40:34;22.60;18.20
11142;DHT22;5625;50.122;19.864;2023-07-16T02:43:02;22.60;43.70
11142;DHT22;5625;50.122;19.864;2023-07-16T02:45:30;22.60;45.10
11142;DHT22;5625;50.122;19.864;2023-07-16T02:47:58;22.50;83.10
11142;DHT22;5625;50.122;19.864;2023-07-16T02:50:27;22.50;94.20
11142;DHT22;5625;50.122;19.864;2023-07-16T02:52:55;22.40;99.90
11142;DHT22;5625;50.122;19.864;2023-07-16T02:55:23;22.40;99.90
11142;DHT22;5625;50.122;19.864;2023-07-16T02:57:52;22.40;99.90
11142;DHT22;5625;50.122;19.864;2023-07-16T03:00:20;22.40;99.90
11142;DHT22;5625;50.122;19.864;2023-07-16T03:02:49;22.30;99.90
11142;DHT22;5625;50.122;19.864;2023-07-16T03:05:17;22.30;99.90
11142;DHT22;5625;50.122;19.864;2023-07-16T03:07:45;22.30;99.90
11142;DHT22;5625;50.122;19.864;2023-07-16T03:10:13;22.40;99.90
11142;DHT22;5625;50.122;19.864;2023-07-16T03:12:41;22.40;99.90
11142;DHT22;5625;50.122;19.864;2023-07-16T03:15:11;22.40;99.90
11142;DHT22;5625;50.122;19.864;2023-07-16T03:17:39;22.40;99.90
11142;DHT22;5625;50.122;19.864;2023-07-16T03:20:08;22.40;99.90
11142;DHT22;5625;50.122;19.864;2023-07-16T03:22:36;22.40;99.90
11142;DHT22;5625;50.122;19.864;2023-07-16T03:25:06;22.40;99.90
11142;DHT22;5625;50.122;19.864;2023-07-16T03:27:34;22.40;99.90
11142;DHT22;5625;50.122;19.864;2023-07-16T03:30:03;22.40;99.90
11142;DHT22;5625;50.122;19.864;2023-07-16T03:32:33;22.40;99.90
11142;DHT22;5625;50.122;19.864;2023-07-16T03:35:18;22.30;99.90
11142;DHT22;5625;50.122;19.864;2023-07-16T03:37:50;22.30;99.90
11142;DHT22;5625;50.122;19.864;2023-07-16T03:40:21;22.30;99.90
11142;DHT22;5625;50.122;19.864;2023-07-16T03:42:49;22.30;99.90
11142;DHT22;5625;50.122;19.864;2023-07-16T03:45:18;22.30;99.90
11142;DHT22;5625;50.122;19.864;2023-07-16T03:47:47;22.30;99.90
11142;DHT22;5625;50.122;19.864;2023-07-16T03:50:16;22.30;99.90
11142;DHT22;5625;50.122;19.864;2023-07-16T03:52:44;22.30;99.90
11142;DHT22;5625;50.122;19.864;2023-07-16T03:55:12;22.30;99.90
11142;DHT22;5625;50.122;19.864;2023-07-16T03:57:40;22.30;99.90
11142;DHT22;5625;50.122;19.864;2023-07-16T04:00:09;22.30;99.90
11142;DHT22;5625;50.122;19.864;2023-07-16T04:02:37;22.40;99.90
11142;DHT22;5625;50.122;19.864;2023-07-16T04:05:08;22.40;99.90
11142;DHT22;5625;50.122;19.864;2023-07-16T04:07:36;22.40;99.90
11142;DHT22;5625;50.122;19.864;2023-07-16T04:10:05;22.40;99.90
11142;DHT22;5625;50.122;19.864;2023-07-16T04:12:33;22.40;99.90
11142;DHT22;5625;50.122;19.864;2023-07-16T04:15:06;22.40;99.90
11142;DHT22;5625;50.122;19.864;2023-07-16T04:17:34;22.50;99.90
11142;DHT22;5625;50.122;19.864;2023-07-16T04:20:03;22.50;99.90
11142;DHT22;5625;50.122;19.864;2023-07-16T04:22:34;22.50;99.90
11142;DHT22;5625;50.122;19.864;2023-07-16T04:25:03;22.60;99.90
11142;DHT22;5625;50.122;19.864;2023-07-16T04:27:31;22.60;99.90
11142;DHT22;5625;50.122;19.864;2023-07-16T04:29:59;22.60;99.90
11142;DHT22;5625;50.122;19.864;2023-07-16T04:32:28;22.70;99.90
11142;DHT22;5625;50.122;19.864;2023-07-16T04:34:57;22.70;99.90
11142;DHT22;5625;50.122;19.864;2023-07-16T04:37:25;22.70;99.90
11142;DHT22;5625;50.122;19.864;2023-07-16T04:39:55;22.70;99.90
11142;DHT22;5625;50.122;19.864;2023-07-16T04:42:23;22.80;99.90
11142;DHT22;5625;50.122;19.864;2023-07-16T04:44:51;22.80;99.90
11142;DHT22;5625;50.122;19.864;2023-07-16T04:47:19;22.90;94.30
11142;DHT22;5625;50.122;19.864;2023-07-16T04:49:47;22.90;94.30
11142;DHT22;5625;50.122;19.864;2023-07-16T04:52:15;23.00;32.50
11142;DHT22;5625;50.122;19.864;2023-07-16T04:54:43;23.00;30.70
11142;DHT22;5625;50.122;19.864;2023-07-16T04:57:13;23.10;34.90
11142;DHT22;5625;50.122;19.864;2023-07-16T04:59:41;23.10;1.00
11142;DHT22;5625;50.122;19.864;2023-07-16T05:02:09;23.20;76.20
11142;DHT22;5625;50.122;19.864;2023-07-16T05:04:37;23.30;1.00
11142;DHT22;5625;50.122;19.864;2023-07-16T05:07:05;23.40;17.70
11142;DHT22;5625;50.122;19.864;2023-07-16T05:09:33;23.50;1.00
11142;DHT22;5625;50.122;19.864;2023-07-16T05:12:01;23.70;1.00
11142;DHT22;5625;50.122;19.864;2023-07-16T05:14:31;23.80;99.90
11142;DHT22;5625;50.122;19.864;2023-07-16T05:17:10;24.00;99.90
11142;DHT22;5625;50.122;19.864;2023-07-16T05:19:38;24.10;25.80
11142;DHT22;5625;50.122;19.864;2023-07-16T05:22:08;24.30;1.00
11142;DHT22;5625;50.122;19.864;2023-07-16T05:24:36;24.50;99.90
11142;DHT22;5625;50.122;19.864;2023-07-16T05:27:05;24.70;99.90
11142;DHT22;5625;50.122;19.864;2023-07-16T05:29:34;24.80;1.00
11142;DHT22;5625;50.122;19.864;2023-07-16T05:32:03;25.00;1.00
11142;DHT22;5625;50.122;19.864;2023-07-16T05:34:32;25.20;99.90
11142;DHT22;5625;50.122;19.864;2023-07-16T05:37:00;25.50;99.90
11142;DHT22;5625;50.122;19.864;2023-07-16T05:39:28;25.80;99.90
11142;DHT22;5625;50.122;19.864;2023-07-16T05:41:56;26.00;1.00
11142;DHT22;5625;50.122;19.864;2023-07-16T05:44:24;26.20;99.90
11142;DHT22;5625;50.122;19.864;2023-07-16T05:46:54;26.50;1.00
11142;DHT22;5625;50.122;19.864;2023-07-16T05:49:22;26.80;99.90
11142;DHT22;5625;50.122;19.864;2023-07-16T05:51:50;27.10;99.90
11142;DHT22;5625;50.122;19.864;2023-07-16T05:54:18;27.20;1.00
11142;DHT22;5625;50.122;19.864;2023-07-16T05:56:46;27.50;99.90
11142;DHT22;5625;50.122;19.864;2023-07-16T05:59:14;27.70;99.90
11142;DHT22;5625;50.122;19.864;2023-07-16T06:01:44;27.90;89.90
11142;DHT22;5625;50.122;19.864;2023-07-16T06:04:14;28.20;99.90
11142;DHT22;5625;50.122;19.864;2023-07-16T06:06:42;28.50;99.90
11142;DHT22;5625;50.122;19.864;2023-07-16T06:09:10;28.90;99.90
11142;DHT22;5625;50.122;19.864;2023-07-16T06:11:38;29.20;36.10
11142;DHT22;5625;50.122;19.864;2023-07-16T06:14:07;29.50;1.00
11142;DHT22;5625;50.122;19.864;2023-07-16T06:16:35;29.80;99.90
11142;DHT22;5625;50.122;19.864;2023-07-16T06:19:03;30.10;99.90
11142;DHT22;5625;50.122;19.864;2023-07-16T06:21:32;30.40;99.90
11142;DHT22;5625;50.122;19.864;2023-07-16T06:24:01;30.60;99.90
11142;DHT22;5625;50.122;19.864;2023-07-16T06:26:29;30.90;3.20
11142;DHT22;5625;50.122;19.864;2023-07-16T06:28:57;31.20;1.00
11142;DHT22;5625;50.122;19.864;2023-07-16T06:31:25;31.40;1.00
11142;DHT22;5625;50.122;19.864;2023-07-16T06:33:53;31.60;99.90
11142;DHT22;5625;50.122;19.864;2023-07-16T06:36:21;31.90;99.90
11142;DHT22;5625;50.122;19.864;2023-07-16T06:38:51;32.10;99.90
11142;DHT22;5625;50.122;19.864;2023-07-16T06:41:19;32.40;99.90
11142;DHT22;5625;50.122;19.864;2023-07-16T06:43:47;32.60;99.90
11142;DHT22;5625;50.122;19.864;2023-07-16T06:46:18;32.80;99.90
11142;DHT22;5625;50.122;19.864;2023-07-16T06:48:46;33.00;99.90
11142;DHT22;5625;50.122;19.864;2023-07-16T06:51:14;33.20;93.90
11142;DHT22;5625;50.122;19.864;2023-07-16T06:53:43;33.40;42.20
11142;DHT22;5625;50.122;19.864;2023-07-16T06:56:13;33.70;1.00
11142;DHT22;5625;50.122;19.864;2023-07-16T06:58:41;33.80;1.00
11142;DHT22;5625;50.122;19.864;2023-07-16T07:01:09;34.10;1.00
11142;DHT22;5625;50.122;19.864;2023-07-16T07:03:38;34.20;99.90
11142;DHT22;5625;50.122;19.864;2023-07-16T07:06:06;34.50;99.90
11142;DHT22;5625;50.122;19.864;2023-07-16T07:08:37;34.70;99.90
11142;DHT22;5625;50.122;19.864;2023-07-16T07:11:05;34.90;99.90
11142;DHT22;5625;50.122;19.864;2023-07-16T07:13:34;35.10;99.90
11142;DHT22;5625;50.122;19.864;2023-07-16T07:16:03;35.20;99.90
11142;DHT22;5625;50.122;19.864;2023-07-16T07:18:31;35.40;99.90
11142;DHT22;5625;50.122;19.864;2023-07-16T07:20:59;35.60;99.90
11142;DHT22;5625;50.122;19.864;2023-07-16T07:23:27;35.80;99.90
11142;DHT22;5625;50.122;19.864;2023-07-16T07:25:55;35.90;99.90
11142;DHT22;5625;50.122;19.864;2023-07-16T07:28:23;36.10;99.90
11142;DHT22;5625;50.122;19.864;2023-07-16T07:30:53;36.30;99.90
11142;DHT22;5625;50.122;19.864;2023-07-16T07:33:21;36.50;99.90
11142;DHT22;5625;50.122;19.864;2023-07-16T07:35:49;36.50;99.90
11142;DHT22;5625;50.122;19.864;2023-07-16T07:38:20;36.60;99.90
11142;DHT22;5625;50.122;19.864;2023-07-16T07:40:48;36.80;99.90
11142;DHT22;5625;50.122;19.864;2023-07-16T07:43:16;37.00;99.90
11142;DHT22;5625;50.122;19.864;2023-07-16T07:45:44;37.10;91.20
11142;DHT22;5625;50.122;19.864;2023-07-16T07:48:14;37.20;75.30
11142;DHT22;5625;50.122;19.864;2023-07-16T07:50:42;37.20;66.90
11142;DHT22;5625;50.122;19.864;2023-07-16T07:53:10;37.30;60.90
11142;DHT22;5625;50.122;19.864;2023-07-16T07:55:38;37.40;54.30
11142;DHT22;5625;50.122;19.864;2023-07-16T07:58:07;37.60;48.30
11142;DHT22;5625;50.122;19.864;2023-07-16T08:00:35;37.70;43.90
11142;DHT22;5625;50.122;19.864;2023-07-16T08:03:08;37.80;38.40
11142;DHT22;5625;50.122;19.864;2023-07-16T08:05:38;37.90;29.50
11142;DHT22;5625;50.122;19.864;2023-07-16T08:08:08;38.10;25.50
11142;DHT22;5625;50.122;19.864;2023-07-16T08:10:36;38.20;20.20
11142;DHT22;5625;50.122;19.864;2023-07-16T08:13:04;38.20;12.40
11142;DHT22;5625;50.122;19.864;2023-07-16T08:15:32;38.40;8.90
11142;DHT22;5625;50.122;19.864;2023-07-16T08:18:00;38.50;4.10
11142;DHT22;5625;50.122;19.864;2023-07-16T08:20:28;38.50;1.00
11142;DHT22;5625;50.122;19.864;2023-07-16T08:23:00;38.50;1.00
11142;DHT22;5625;50.122;19.864;2023-07-16T08:25:28;38.60;1.00
11142;DHT22;5625;50.122;19.864;2023-07-16T08:27:56;38.60;1.00
11142;DHT22;5625;50.122;19.864;2023-07-16T08:30:25;38.70;1.00
11142;DHT22;5625;50.122;19.864;2023-07-16T08:32:54;38.80;1.00
11142;DHT22;5625;50.122;19.864;2023-07-16T08:35:22;38.80;1.00
11142;DHT22;5625;50.122;19.864;2023-07-16T08:37:50;38.70;1.00
11142;DHT22;5625;50.122;19.864;2023-07-16T08:40:19;38.70;1.00
11142;DHT22;5625;50.122;19.864;2023-07-16T08:42:49;38.80;1.00
11142;DHT22;5625;50.122;19.864;2023-07-16T08:45:19;38.70;1.00
11142;DHT22;5625;50.122;19.864;2023-07-16T08:47:50;38.70;1.00
11142;DHT22;5625;50.122;19.864;2023-07-16T08:50:20;38.60;1.00
11142;DHT22;5625;50.122;19.864;2023-07-16T08:52:49;38.50;1.00
11142;DHT22;5625;50.122;19.864;2023-07-16T08:55:19;38.60;1.00
11142;DHT22;5625;50.122;19.864;2023-07-16T08:57:49;38.60;1.00
11142;DHT22;5625;50.122;19.864;2023-07-16T09:00:17;38.50;1.00
11142;DHT22;5625;50.122;19.864;2023-07-16T09:02:46;38.40;1.00
11142;DHT22;5625;50.122;19.864;2023-07-16T09:05:17;38.30;1.00
11142;DHT22;5625;50.122;19.864;2023-07-16T09:08:03;38.30;1.00
11142;DHT22;5625;50.122;19.864;2023-07-16T09:10:32;38.50;1.00
11142;DHT22;5625;50.122;19.864;2023-07-16T09:13:00;38.60;1.00
11142;DHT22;5625;50.122;19.864;2023-07-16T09:15:29;38.70;1.00
11142;DHT22;5625;50.122;19.864;2023-07-16T09:17:57;38.80;1.00
11142;DHT22;5625;50.122;19.864;2023-07-16T09:20:26;38.80;1.00
11142;DHT22;5625;50.122;19.864;2023-07-16T09:22:54;38.90;1.00
11142;DHT22;5625;50.122;19.864;2023-07-16T09:25:26;39.00;1.00
11142;DHT22;5625;50.122;19.864;2023-07-16T09:27:57;39.10;1.00
11142;DHT22;5625;50.122;19.864;2023-07-16T09:30:25;39.30;1.00
11142;DHT22;5625;50.122;19.864;2023-07-16T09:32:58;39.20;1.00
11142;DHT22;5625;50.122;19.864;2023-07-16T09:35:26;39.30;1.00
11142;DHT22;5625;50.122;19.864;2023-07-16T09:37:54;39.30;1.00
11142;DHT22;5625;50.122;19.864;2023-07-16T09:40:24;39.30;1.00
11142;DHT22;5625;50.122;19.864;2023-07-16T09:42:55;39.20;1.00
11142;DHT22;5625;50.122;19.864;2023-07-16T09:45:24;39.30;1.00
11142;DHT22;5625;50.122;19.864;2023-07-16T09:47:52;39.30;1.00
11142;DHT22;5625;50.122;19.864;2023-07-16T09:50:23;39.30;1.00
11142;DHT22;5625;50.122;19.864;2023-07-16T09:52:52;39.30;1.00
11142;DHT22;5625;50.122;19.864;2023-07-16T09:55:22;39.40;1.00
11142;DHT22;5625;50.122;19.864;2023-07-16T09:57:57;39.40;1.00
11142;DHT22;5625;50.122;19.864;2023-07-16T10:00:29;39.50;1.00
11142;DHT22;5625;50.122;19.864;2023-07-16T10:02:57;39.70;1.00
11142;DHT22;5625;50.122;19.864;2023-07-16T10:05:27;39.70;1.00
11142;DHT22;5625;50.122;19.864;2023-07-16T10:07:56;39.80;1.00
11142;DHT22;5625;50.122;19.864;2023-07-16T10:10:37;39.80;1.00
11142;DHT22;5625;50.122;19.864;2023-07-16T10:13:07;39.90;1.00
11142;DHT22;5625;50.122;19.864;2023-07-16T10:15:37;40.00;1.00
11142;DHT22;5625;50.122;19.864;2023-07-16T10:18:05;40.00;1.00
11142;DHT22;5625;50.122;19.864;2023-07-16T10:20:35;40.00;1.00
11142;DHT22;5625;50.122;19.864;2023-07-16T10:23:13;40.00;1.00
11142;DHT22;5625;50.122;19.864;2023-07-16T10:25:58;40.00;1.00
11142;DHT22;5625;50.122;19.864;2023-07-16T10:28:28;40.00;1.00
11142;DHT22;5625;50.122;19.864;2023-07-16T10:31:00;39.90;1.00
11142;DHT22;5625;50.122;19.864;2023-07-16T10:33:28;39.90;1.00
11142;DHT22;5625;50.122;19.864;2023-07-16T10:35:57;40.00;1.00
11142;DHT22;5625;50.122;19.864;2023-07-16T10:38:26;39.80;1.00
11142;DHT22;5625;50.122;19.864;2023-07-16T10:40:55;39.70;1.00
11142;DHT22;5625;50.122;19.864;2023-07-16T10:43:24;39.70;1.00
11142;DHT22;5625;50.122;19.864;2023-07-16T10:45:52;39.80;1.00
11142;DHT22;5625;50.122;19.864;2023-07-16T10:48:26;40.00;1.00
11142;DHT22;5625;50.122;19.864;2023-07-16T10:50:54;40.10;1.00
11142;DHT22;5625;50.122;19.864;2023-07-16T10:53:24;39.90;1.00
11142;DHT22;5625;50.122;19.864;2023-07-16T10:55:53;39.70;1.00
11142;DHT22;5625;50.122;19.864;2023-07-16T10:58:21;39.60;1.00
11142;DHT22;5625;50.122;19.864;2023-07-16T11:00:49;39.50;1.00
11142;DHT22;5625;50.122;19.864;2023-07-16T11:03:18;39.20;1.00
11142;DHT22;5625;50.122;19.864;2023-07-16T11:05:47;39.10;1.00
11142;DHT22;5625;50.122;19.864;2023-07-16T11:08:23;39.20;1.00
11142;DHT22;5625;50.122;19.864;2023-07-16T11:10:57;39.10;1.00
11142;DHT22;5625;50.122;19.864;2023-07-16T11:13:26;39.30;1.00
11142;DHT22;5625;50.122;19.864;2023-07-16T11:15:54;39.40;1.00
11142;DHT22;5625;50.122;19.864;2023-07-16T11:18:23;39.30;1.00
11142;DHT22;5625;50.122;19.864;2023-07-16T11:20:53;39.30;1.00
11142;DHT22;5625;50.122;19.864;2023-07-16T11:23:23;39.40;1.00
11142;DHT22;5625;50.122;19.864;2023-07-16T11:25:52;39.40;1.00
11142;DHT22;5625;50.122;19.864;2023-07-16T11:28:20;39.50;1.00
11142;DHT22;5625;50.122;19.864;2023-07-16T11:30:48;39.60;1.00
11142;DHT22;5625;50.122;19.864;2023-07-16T11:33:16;39.50;1.00
11142;DHT22;5625;50.122;19.864;2023-07-16T11:35:47;39.60;1.00
11142;DHT22;5625;50.122;19.864;2023-07-16T11:38:17;39.60;1.00
11142;DHT22;5625;50.122;19.864;2023-07-16T11:40:46;39.60;1.00
11142;DHT22;5625;50.122;19.864;2023-07-16T11:43:14;39.70;1.00
11142;DHT22;5625;50.122;19.864;2023-07-16T11:45:47;39.70;1.00
11142;DHT22;5625;50.122;19.864;2023-07-16T11:48:19;39.70;1.00
11142;DHT22;5625;50.122;19.864;2023-07-16T11:50:47;39.70;1.00
11142;DHT22;5625;50.122;19.864;2023-07-16T11:53:17;39.70;1.00
11142;DHT22;5625;50.122;19.864;2023-07-16T11:55:45;39.70;1.00
11142;DHT22;5625;50.122;19.864;2023-07-16T11:58:13;39.80;1.00
11142;DHT22;5625;50.122;19.864;2023-07-16T12:00:41;39.80;1.00
11142;DHT22;5625;50.122;19.864;2023-07-16T12:03:09;39.80;1.00
11142;DHT22;5625;50.122;19.864;2023-07-16T12:05:37;39.80;1.00
11142;DHT22;5625;50.122;19.864;2023-07-16T12:08:21;39.80;1.00
11142;DHT22;5625;50.122;19.864;2023-07-16T12:10:49;39.80;1.00
11142;DHT22;5625;50.122;19.864;2023-07-16T12:13:17;39.80;1.00
11142;DHT22;5625;50.122;19.864;2023-07-16T12:15:45;39.60;1.00
11142;DHT22;5625;50.122;19.864;2023-07-16T12:18:13;39.60;1.00
11142;DHT22;5625;50.122;19.864;2023-07-16T12:20:41;39.60;1.00
11142;DHT22;5625;50.122;19.864;2023-07-16T12:23:09;39.60;1.00
11142;DHT22;5625;50.122;19.864;2023-07-16T12:25:39;39.60;1.00
11142;DHT22;5625;50.122;19.864;2023-07-16T12:28:07;39.60;1.00
11142;DHT22;5625;50.122;19.864;2023-07-16T12:30:35;39.70;1.00
11142;DHT22;5625;50.122;19.864;2023-07-16T12:33:03;39.70;1.00
11142;DHT22;5625;50.122;19.864;2023-07-16T12:35:31;39.70;1.00
11142;DHT22;5625;50.122;19.864;2023-07-16T12:37:59;39.80;1.00
11142;DHT22;5625;50.122;19.864;2023-07-16T12:40:28;39.70;1.00
11142;DHT22;5625;50.122;19.864;2023-07-16T12:42:58;39.60;1.00
11142;DHT22;5625;50.122;19.864;2023-07-16T12:45:26;39.50;1.00
11142;DHT22;5625;50.122;19.864;2023-07-16T12:47:54;39.40;1.00
11142;DHT22;5625;50.122;19.864;2023-07-16T12:50:25;39.30;1.00
11142;DHT22;5625;50.122;19.864;2023-07-16T12:52:55;39.30;1.00
11142;DHT22;5625;50.122;19.864;2023-07-16T12:55:23;39.40;1.00
11142;DHT22;5625;50.122;19.864;2023-07-16T12:57:51;39.30;1.00
11142;DHT22;5625;50.122;19.864;2023-07-16T13:00:21;39.30;1.00
11142;DHT22;5625;50.122;19.864;2023-07-16T13:02:49;39.20;1.00
11142;DHT22;5625;50.122;19.864;2023-07-16T13:05:17;39.20;1.00
11142;DHT22;5625;50.122;19.864;2023-07-16T13:07:45;39.10;1.00
11142;DHT22;5625;50.122;19.864;2023-07-16T13:10:13;39.00;1.00
11142;DHT22;5625;50.122;19.864;2023-07-16T13:12:49;38.90;1.00
11142;DHT22;5625;50.122;19.864;2023-07-16T13:15:17;38.90;1.00
11142;DHT22;5625;50.122;19.864;2023-07-16T13:17:47;38.90;1.00
11142;DHT22;5625;50.122;19.864;2023-07-16T13:20:16;38.70;1.00
11142;DHT22;5625;50.122;19.864;2023-07-16T13:22:45;38.70;1.00
11142;DHT22;5625;50.122;19.864;2023-07-16T13:25:14;38.70;1.00
11142;DHT22;5625;50.122;19.864;2023-07-16T13:27:42;38.60;1.00
11142;DHT22;5625;50.122;19.864;2023-07-16T13:30:10;38.60;1.00
11142;DHT22;5625;50.122;19.864;2023-07-16T13:32:40;38.70;1.00
11142;DHT22;5625;50.122;19.864;2023-07-16T13:35:10;38.60;1.00
11142;DHT22;5625;50.122;19.864;2023-07-16T13:37:38;38.60;1.00
11142;DHT22;5625;50.122;19.864;2023-07-16T13:40:07;38.60;1.00
11142;DHT22;5625;50.122;19.864;2023-07-16T13:42:37;38.50;1.00
11142;DHT22;5625;50.122;19.864;2023-07-16T13:45:06;38.40;1.00
11142;DHT22;5625;50.122;19.864;2023-07-16T13:47:34;38.40;1.00
11142;DHT22;5625;50.122;19.864;2023-07-16T13:50:03;38.30;1.00
11142;DHT22;5625;50.122;19.864;2023-07-16T13:52:33;38.30;1.00
11142;DHT22;5625;50.122;19.864;2023-07-16T13:55:01;38.30;1.00
11142;DHT22;5625;50.122;19.864;2023-07-16T13:57:30;38.20;1.00
11142;DHT22;5625;50.122;19.864;2023-07-16T13:59:58;38.20;1.00
11142;DHT22;5625;50.122;19.864;2023-07-16T14:02:27;38.10;1.00
11142;DHT22;5625;50.122;19.864;2023-07-16T14:04:59;38.10;1.00
11142;DHT22;5625;50.122;19.864;2023-07-16T14:07:27;38.10;1.00
11142;DHT22;5625;50.122;19.864;2023-07-16T14:09:56;38.00;1.00
11142;DHT22;5625;50.122;19.864;2023-07-16T14:12:24;38.00;1.00
11142;DHT22;5625;50.122;19.864;2023-07-16T14:14:52;38.00;1.00
11142;DHT22;5625;50.122;19.864;2023-07-16T14:17:22;38.00;1.00
11142;DHT22;5625;50.122;19.864;2023-07-16T14:19:50;38.10;1.00
11142;DHT22;5625;50.122;19.864;2023-07-16T14:22:19;38.00;1.00
11142;DHT22;5625;50.122;19.864;2023-07-16T14:24:51;37.90;1.00
11142;DHT22;5625;50.122;19.864;2023-07-16T14:27:23;37.80;1.00
11142;DHT22;5625;50.122;19.864;2023-07-16T14:29:51;37.80;1.00
11142;DHT22;5625;50.122;19.864;2023-07-16T14:32:31;37.80;1.00
11142;DHT22;5625;50.122;19.864;2023-07-16T14:34:59;37.80;1.00
11142;DHT22;5625;50.122;19.864;2023-07-16T14:37:28;37.70;1.00
11142;DHT22;5625;50.122;19.864;2023-07-16T14:39:58;37.70;1.00
11142;DHT22;5625;50.122;19.864;2023-07-16T14:42:27;37.70;1.00
11142;DHT22;5625;50.122;19.864;2023-07-16T14:44:55;37.70;1.00
11142;DHT22;5625;50.122;19.864;2023-07-16T14:47:26;37.70;1.00
11142;DHT22;5625;50.122;19.864;2023-07-16T14:49:54;37.70;1.00
11142;DHT22;5625;50.122;19.864;2023-07-16T14:52:22;37.70;1.00
11142;DHT22;5625;50.122;19.864;2023-07-16T14:54:50;37.70;1.00
11142;DHT22;5625;50.122;19.864;2023-07-16T14:57:18;37.60;1.00
11142;DHT22;5625;50.122;19.864;2023-07-16T14:59:50;37.60;1.00
11142;DHT22;5625;50.122;19.864;2023-07-16T15:02:18;37.60;1.00
11142;DHT22;5625;50.122;19.864;2023-07-16T15:04:46;37.60;1.00
11142;DHT22;5625;50.122;19.864;2023-07-16T15:07:14;37.60;1.00
11142;DHT22;5625;50.122;19.864;2023-07-16T15:09:45;37.60;1.00
11142;DHT22;5625;50.122;19.864;2023-07-16T15:12:13;37.60;1.00
11142;DHT22;5625;50.122;19.864;2023-07-16T15:14:41;37.50;1.00
11142;DHT22;5625;50.122;19.864;2023-07-16T15:17:11;37.50;1.00
11142;DHT22;5625;50.122;19.864;2023-07-16T15:19:39;37.40;1.00
11142;DHT22;5625;50.122;19.864;2023-07-16T15:22:10;37.30;1.00
11142;DHT22;5625;50.122;19.864;2023-07-16T15:24:38;37.20;1.00
11142;DHT22;5625;50.122;19.864;2023-07-16T15:27:08;37.10;1.00
11142;DHT22;5625;50.122;19.864;2023-07-16T15:29:36;37.10;1.00
11142;DHT22;5625;50.122;19.864;2023-07-16T15:32:06;37.10;1.00
11142;DHT22;5625;50.122;19.864;2023-07-16T15:34:35;37.10;1.00
11142;DHT22;5625;50.122;19.864;2023-07-16T15:37:10;37.00;1.00
11142;DHT22;5625;50.122;19.864;2023-07-16T15:39:38;36.90;1.00
11142;DHT22;5625;50.122;19.864;2023-07-16T15:42:06;36.70;1.00
11142;DHT22;5625;50.122;19.864;2023-07-16T15:44:34;36.60;1.00
11142;DHT22;5625;50.122;19.864;2023-07-16T15:47:03;36.40;1.00
11142;DHT22;5625;50.122;19.864;2023-07-16T15:49:31;36.20;1.00
11142;DHT22;5625;50.122;19.864;2023-07-16T15:52:00;36.20;1.00